Ibiquera, Brazil
Current Conditions -  °F | °C
As of 7:00 AM on Saturday 29 Nov 2014 (Local Time) from SBQV Reporting Station
Broken Clouds Broken Clouds  
Wind Chill: 68°   Ceiling: 500
Heat Index: 68°   Visibility: 6mi
Dew Point: 68°   Wind: 7mph
Humidity: 100%   Direction: 80°E
Pressure: 30.12"   Gusts: NA
Location:  12.65°S, 40.93°W
Report Text: SBQV 291000Z 08006KT 9999 BKN005 20/20 Q1020
Loading
Personal Weather Stations






























Interactive Weather Map New forecast layout! Learn more

10-Day Weather Forecast

Advertisements
Track Severe Weather on mobile